Time;durP1;ratioP1;P1;durP2;ratioP2;P2;SDS_P1;SDS_P2;PMS_P1;PMS_P2;Temp;Humidity;BMP_temperature;BMP_pressure;BME280_temperature;BME280_humidity;BME280_pressure;Samples;Min_cycle;Max_cycle;Signal;HPM_P1;HPM_P2
2022/01/27 00:05:05;;;;;;;10.53;7.70;;;;;;;;;;5022721;28;20214;-69
2022/01/27 00:07:34;;;;;;;8.83;7.93;;;;;;;;;;5022589;28;20761;-69
2022/01/27 00:13:00;;;;;;;8.93;7.03;;;;;;;;;;5025329;28;20203;-68
2022/01/27 00:15:33;;;;;;;9.20;7.67;;;;;;;;;;5031096;28;20207;-68
2022/01/27 00:18:13;;;;;;;7.50;6.47;;;;;;;;;;5030178;28;20207;-68
2022/01/27 00:20:49;;;;;;;9.57;7.20;;;;;;;;;;5012207;28;20195;-69
2022/01/27 00:23:21;;;;;;;9.10;7.30;;;;;;;;;;5011749;28;20232;-68
2022/01/27 00:25:53;;;;;;;8.67;7.77;;;;;;;;;;5029614;28;20215;-68
2022/01/27 00:28:22;;;;;;;9.00;7.37;;;;;;;;;;5031045;28;20829;-68
2022/01/27 00:30:59;;;;;;;8.40;7.07;;;;;;;;;;5021537;28;20199;-68
2022/01/27 00:33:33;;;;;;;8.23;7.40;;;;;;;;;;5015627;28;20191;-68
2022/01/27 00:36:05;;;;;;;8.27;7.40;;;;;;;;;;5026926;28;20214;-68
2022/01/27 00:38:41;;;;;;;8.57;7.40;;;;;;;;;;5015911;28;20282;-69
2022/01/27 00:41:10;;;;;;;8.77;7.87;;;;;;;;;;5025928;28;20202;-68
2022/01/27 00:43:39;;;;;;;8.40;7.60;;;;;;;;;;5018766;28;20210;-69
2022/01/27 00:46:15;;;;;;;8.97;7.37;;;;;;;;;;5028043;28;20265;-68
2022/01/27 00:48:45;;;;;;;8.13;7.27;;;;;;;;;;5026347;28;20205;-69
2022/01/27 00:51:30;;;;;;;9.17;8.10;;;;;;;;;;5015316;28;20281;-68
2022/01/27 00:56:40;;;;;;;7.97;7.17;;;;;;;;;;5027731;28;20217;-68
2022/01/27 01:03:06;;;;;;;8.83;7.83;;;;;;;;;;5030729;28;20654;-68
2022/01/27 01:05:19;;;;;;;7.47;6.77;;;;;;;;;;5000586;28;20223;-68
2022/01/27 01:07:54;;;;;;;8.00;7.13;;;;;;;;;;5028898;28;20689;-68
2022/01/27 01:15:38;;;;;;;8.87;7.40;;;;;;;;;;5034268;28;20209;-68
2022/01/27 01:32:44;;;;;;;6.43;5.83;;;;;;;;;;5027717;28;20214;-70
2022/01/27 01:35:06;;;;;;;8.33;7.53;;;;;;;;;;5027096;28;20195;-70
2022/01/27 01:37:42;;;;;;;8.30;7.03;;;;;;;;;;5035235;28;20231;-70
2022/01/27 01:40:15;;;;;;;8.77;7.87;;;;;;;;;;5027474;28;20636;-69
2022/01/27 01:42:52;;;;;;;8.10;7.30;;;;;;;;;;5018462;28;20225;-70
2022/01/27 01:45:37;;;;;;;7.80;7.00;;;;;;;;;;5017049;28;20230;-70
2022/01/27 01:48:05;;;;;;;8.00;7.17;;;;;;;;;;5027620;28;20202;-70
2022/01/27 01:50:37;;;;;;;8.03;7.23;;;;;;;;;;5042926;28;20547;-70
2022/01/27 01:53:08;;;;;;;8.43;7.53;;;;;;;;;;5022393;28;20542;-69
2022/01/27 01:55:40;;;;;;;7.43;6.70;;;;;;;;;;5018027;28;20624;-70
2022/01/27 01:58:13;;;;;;;8.43;7.40;;;;;;;;;;5028295;28;20199;-70
2022/01/27 02:00:41;;;;;;;8.13;7.00;;;;;;;;;;5033635;28;20207;-69
2022/01/27 02:03:13;;;;;;;9.07;6.50;;;;;;;;;;5013041;28;20549;-70
2022/01/27 02:05:50;;;;;;;7.50;6.80;;;;;;;;;;5013418;28;20242;-69
2022/01/27 02:08:37;;;;;;;8.60;7.50;;;;;;;;;;5027352;28;20199;-70
2022/01/27 02:19:43;;;;;;;7.93;7.13;;;;;;;;;;5025676;28;20213;-70
2022/01/27 02:22:15;;;;;;;8.60;7.33;;;;;;;;;;5024816;28;20195;-70
2022/01/27 02:24:46;;;;;;;7.77;6.97;;;;;;;;;;5029879;28;20215;-70
2022/01/27 02:27:21;;;;;;;7.33;6.50;;;;;;;;;;5009625;28;20233;-70
2022/01/27 02:29:55;;;;;;;7.90;7.10;;;;;;;;;;5012377;28;20670;-70
2022/01/27 02:32:28;;;;;;;8.30;7.50;;;;;;;;;;5011083;28;20197;-71
2022/01/27 02:35:02;;;;;;;7.93;6.77;;;;;;;;;;5022604;28;20257;-70
2022/01/27 02:37:33;;;;;;;8.40;7.03;;;;;;;;;;5018355;28;20304;-70
2022/01/27 02:40:06;;;;;;;8.50;7.10;;;;;;;;;;4995579;28;20207;-70
2022/01/27 02:42:40;;;;;;;7.70;6.60;;;;;;;;;;5000912;28;20226;-70
2022/01/27 02:45:17;;;;;;;7.53;6.83;;;;;;;;;;5008487;28;20720;-70
2022/01/27 02:47:47;;;;;;;7.17;6.47;;;;;;;;;;5009524;28;20834;-70
2022/01/27 02:50:17;;;;;;;7.23;6.53;;;;;;;;;;5003168;28;20196;-69
2022/01/27 02:52:48;;;;;;;7.33;6.50;;;;;;;;;;5000558;28;20310;-70
2022/01/27 02:55:19;;;;;;;7.33;6.17;;;;;;;;;;5006680;28;20846;-70
2022/01/27 02:57:47;;;;;;;6.93;6.23;;;;;;;;;;5000972;28;20234;-70
2022/01/27 03:00:21;;;;;;;6.90;5.83;;;;;;;;;;4994832;28;20211;-70
2022/01/27 03:02:53;;;;;;;7.20;6.50;;;;;;;;;;5006514;28;20649;-70
2022/01/27 03:05:24;;;;;;;6.97;6.37;;;;;;;;;;5005210;28;20216;-70
2022/01/27 03:07:57;;;;;;;6.60;6.00;;;;;;;;;;5005026;28;20222;-70
2022/01/27 03:10:28;;;;;;;7.23;6.53;;;;;;;;;;5005009;28;20223;-70
2022/01/27 03:13:00;;;;;;;7.77;6.97;;;;;;;;;;5008128;28;20215;-70
2022/01/27 03:15:30;;;;;;;7.20;6.50;;;;;;;;;;5007604;28;20270;-70
2022/01/27 03:18:01;;;;;;;6.93;6.07;;;;;;;;;;4983077;28;20518;-70
2022/01/27 03:20:33;;;;;;;7.00;6.30;;;;;;;;;;5021640;28;20208;-70
2022/01/27 03:23:09;;;;;;;6.97;5.93;;;;;;;;;;5007610;28;20608;-70
2022/01/27 03:25:41;;;;;;;7.50;6.67;;;;;;;;;;5004571;28;20196;-70
2022/01/27 03:28:15;;;;;;;6.97;6.23;;;;;;;;;;5009966;28;20207;-70
2022/01/27 03:30:52;;;;;;;7.37;6.10;;;;;;;;;;5002894;28;20221;-70
2022/01/27 03:33:28;;;;;;;6.60;5.90;;;;;;;;;;5004590;28;20787;-69
2022/01/27 03:36:12;;;;;;;6.67;6.03;;;;;;;;;;4997265;28;20789;-70
2022/01/27 03:38:42;;;;;;;8.17;6.27;;;;;;;;;;5017071;28;20279;-70
2022/01/27 03:41:31;;;;;;;8.23;6.57;;;;;;;;;;5021162;28;20308;-70
2022/01/27 03:44:01;;;;;;;6.60;5.90;;;;;;;;;;5025404;28;20186;-70
2022/01/27 03:46:29;;;;;;;6.93;5.80;;;;;;;;;;5005282;28;20235;-70
2022/01/27 03:49:02;;;;;;;6.97;6.27;;;;;;;;;;5022527;28;20229;-70
2022/01/27 03:51:37;;;;;;;6.80;6.20;;;;;;;;;;5022975;28;20199;-70
2022/01/27 03:54:10;;;;;;;7.47;6.03;;;;;;;;;;5022496;28;20211;-70
2022/01/27 03:56:41;;;;;;;6.00;5.40;;;;;;;;;;5027705;28;20235;-70
2022/01/27 03:59:13;;;;;;;5.77;5.20;;;;;;;;;;5013252;28;20195;-70
2022/01/27 04:01:42;;;;;;;6.13;5.53;;;;;;;;;;5023463;28;20268;-70
2022/01/27 04:04:15;;;;;;;6.40;5.80;;;;;;;;;;5026427;28;20213;-69
2022/01/27 04:06:49;;;;;;;6.83;5.83;;;;;;;;;;5008417;28;20222;-69
2022/01/27 04:09:24;;;;;;;6.20;5.60;;;;;;;;;;5014122;28;20206;-70
2022/01/27 04:11:56;;;;;;;6.50;5.80;;;;;;;;;;5029008;28;20195;-70
2022/01/27 04:14:32;;;;;;;6.50;5.90;;;;;;;;;;5029596;28;20198;-70
2022/01/27 04:17:05;;;;;;;6.60;6.00;;;;;;;;;;5022512;28;20305;-70
2022/01/27 04:19:35;;;;;;;7.00;5.97;;;;;;;;;;5028849;28;20203;-70
2022/01/27 04:22:09;;;;;;;6.33;5.73;;;;;;;;;;5031718;28;20234;-70
2022/01/27 04:24:38;;;;;;;6.60;6.00;;;;;;;;;;5031142;28;20206;-70
2022/01/27 04:27:23;;;;;;;5.60;5.00;;;;;;;;;;5028585;28;20256;-70
2022/01/27 04:29:52;;;;;;;6.07;5.47;;;;;;;;;;5030235;28;20217;-71
2022/01/27 04:32:32;;;;;;;6.30;5.67;;;;;;;;;;5020839;28;20205;-70
2022/01/27 04:35:05;;;;;;;6.23;5.53;;;;;;;;;;5026160;28;20191;-70
2022/01/27 04:37:58;;;;;;;6.10;5.50;;;;;;;;;;5029505;28;20230;-70
2022/01/27 04:40:37;;;;;;;7.20;5.50;;;;;;;;;;5017381;28;20214;-70
2022/01/27 04:43:16;;;;;;;5.97;5.37;;;;;;;;;;5026078;28;20206;-70
2022/01/27 04:46:20;;;;;;;5.47;4.93;;;;;;;;;;5018396;28;20211;-69
2022/01/27 04:48:58;;;;;;;6.87;6.27;;;;;;;;;;5021933;28;20194;-69
2022/01/27 04:51:35;;;;;;;6.43;5.60;;;;;;;;;;5027233;28;20202;-70
2022/01/27 04:54:24;;;;;;;6.03;5.43;;;;;;;;;;5025382;28;20215;-69
2022/01/27 04:56:58;;;;;;;5.70;5.10;;;;;;;;;;5024942;28;20195;-70
2022/01/27 04:59:42;;;;;;;6.83;5.30;;;;;;;;;;5029644;28;20286;-70
2022/01/27 05:02:37;;;;;;;5.70;4.93;;;;;;;;;;5028203;28;20229;-70
2022/01/27 05:05:10;;;;;;;6.20;5.60;;;;;;;;;;5033266;28;20223;-70
2022/01/27 05:07:55;;;;;;;5.93;5.20;;;;;;;;;;5026185;28;20231;-70
2022/01/27 05:10:35;;;;;;;6.23;5.40;;;;;;;;;;5010689;28;20195;-70
2022/01/27 05:13:15;;;;;;;7.07;5.40;;;;;;;;;;5032076;28;20232;-70
2022/01/27 05:15:54;;;;;;;6.03;5.43;;;;;;;;;;5026283;28;20211;-70
2022/01/27 05:18:30;;;;;;;5.90;5.30;;;;;;;;;;5023768;28;20676;-70
2022/01/27 05:21:08;;;;;;;6.20;5.60;;;;;;;;;;5026572;28;20205;-70
2022/01/27 05:23:38;;;;;;;6.80;5.33;;;;;;;;;;5027525;28;20211;-70
2022/01/27 05:26:08;;;;;;;6.67;5.97;;;;;;;;;;5025314;28;20179;-69
2022/01/27 05:28:44;;;;;;;6.27;5.67;;;;;;;;;;5015963;28;20202;-70
2022/01/27 05:31:13;;;;;;;5.90;5.20;;;;;;;;;;5026149;28;20191;-70
2022/01/27 05:33:45;;;;;;;5.93;5.10;;;;;;;;;;5027892;28;20211;-70
2022/01/27 05:36:18;;;;;;;6.40;5.63;;;;;;;;;;5010013;28;20199;-70
2022/01/27 05:38:48;;;;;;;6.13;5.40;;;;;;;;;;5021340;28;20684;-70
2022/01/27 05:41:24;;;;;;;6.50;5.80;;;;;;;;;;5006561;28;20538;-70
2022/01/27 05:43:56;;;;;;;6.67;5.73;;;;;;;;;;5028287;28;20871;-70
2022/01/27 05:46:26;;;;;;;6.50;5.50;;;;;;;;;;5026932;28;20289;-70
2022/01/27 05:49:02;;;;;;;7.00;5.87;;;;;;;;;;5026211;28;20199;-69
2022/01/27 05:51:33;;;;;;;6.77;6.07;;;;;;;;;;5023621;28;20207;-70
2022/01/27 05:54:05;;;;;;;7.03;6.33;;;;;;;;;;5019383;28;20235;-70
2022/01/27 05:56:35;;;;;;;5.93;5.33;;;;;;;;;;5027527;28;20485;-70
2022/01/27 05:59:05;;;;;;;8.60;6.03;;;;;;;;;;5023555;28;20237;-70
2022/01/27 06:01:36;;;;;;;6.70;5.53;;;;;;;;;;5020291;28;20216;-70
2022/01/27 06:04:08;;;;;;;6.63;5.60;;;;;;;;;;5027484;28;20750;-70
2022/01/27 06:06:41;;;;;;;6.33;5.47;;;;;;;;;;5004017;28;20230;-70
2022/01/27 06:09:12;;;;;;;6.13;5.53;;;;;;;;;;5025614;28;20219;-70
2022/01/27 06:11:43;;;;;;;6.40;5.70;;;;;;;;;;5010557;28;20268;-70
2022/01/27 06:14:18;;;;;;;5.83;5.23;;;;;;;;;;5025442;28;20199;-70
2022/01/27 06:16:51;;;;;;;6.33;5.50;;;;;;;;;;5011100;28;20206;-69
2022/01/27 06:19:29;;;;;;;6.53;5.03;;;;;;;;;;5023870;28;20198;-70
2022/01/27 06:22:11;;;;;;;6.30;5.20;;;;;;;;;;5024447;28;20233;-69
2022/01/27 06:24:39;;;;;;;5.87;5.30;;;;;;;;;;5022446;28;20202;-70
2022/01/27 06:27:08;;;;;;;6.37;5.67;;;;;;;;;;5025628;28;20211;-70
2022/01/27 06:29:40;;;;;;;6.20;5.10;;;;;;;;;;5018931;28;20661;-70
2022/01/27 06:32:13;;;;;;;5.60;5.10;;;;;;;;;;5021797;28;20202;-70
2022/01/27 06:34:46;;;;;;;5.40;4.83;;;;;;;;;;5024365;28;20209;-70
2022/01/27 06:37:20;;;;;;;7.13;5.03;;;;;;;;;;5009567;28;20226;-70
2022/01/27 06:39:57;;;;;;;6.00;5.33;;;;;;;;;;5023991;28;20607;-69
2022/01/27 06:42:33;;;;;;;6.93;5.40;;;;;;;;;;5019212;28;20222;-70
2022/01/27 06:45:03;;;;;;;6.80;5.67;;;;;;;;;;5008728;28;20543;-70
2022/01/27 06:47:31;;;;;;;6.77;5.23;;;;;;;;;;5023878;28;20226;-70
2022/01/27 06:50:09;;;;;;;6.37;4.90;;;;;;;;;;5025583;28;20198;-70
2022/01/27 06:52:51;;;;;;;7.10;5.50;;;;;;;;;;5016308;28;21029;-70
2022/01/27 06:55:24;;;;;;;5.70;5.10;;;;;;;;;;5029879;28;20641;-70
2022/01/27 06:57:54;;;;;;;5.57;4.90;;;;;;;;;;5024872;28;20822;-70
2022/01/27 07:00:28;;;;;;;7.27;5.70;;;;;;;;;;5021914;28;20210;-70
2022/01/27 07:02:57;;;;;;;5.63;5.00;;;;;;;;;;5016338;28;20551;-70
2022/01/27 07:05:32;;;;;;;8.30;6.10;;;;;;;;;;5019715;28;20225;-69
2022/01/27 07:08:02;;;;;;;15.20;5.97;;;;;;;;;;5021638;28;20226;-70
2022/01/27 07:10:44;;;;;;;6.83;5.20;;;;;;;;;;5008517;28;20590;-68
2022/01/27 07:13:42;;;;;;;7.20;6.37;;;;;;;;;;5024835;28;20198;-70
2022/01/27 07:16:13;;;;;;;8.13;6.00;;;;;;;;;;5029361;28;20423;-68
2022/01/27 07:18:44;;;;;;;12.43;5.90;;;;;;;;;;5024149;28;20236;-64
2022/01/27 07:21:13;;;;;;;16.33;6.07;;;;;;;;;;5034792;28;20202;-69
2022/01/27 07:23:44;;;;;;;11.70;6.37;;;;;;;;;;5027058;28;20212;-69
2022/01/27 07:26:14;;;;;;;14.30;6.03;;;;;;;;;;5032986;28;20199;-70
2022/01/27 07:28:43;;;;;;;11.13;5.37;;;;;;;;;;5022210;28;20222;-68
2022/01/27 07:31:15;;;;;;;9.60;5.23;;;;;;;;;;5021153;28;20191;-70
2022/01/27 07:33:44;;;;;;;12.03;5.43;;;;;;;;;;5022605;28;20265;-69
2022/01/27 07:36:16;;;;;;;9.70;4.83;;;;;;;;;;5037040;28;20206;-68
2022/01/27 07:38:47;;;;;;;10.77;5.57;;;;;;;;;;5025363;28;20242;-68
2022/01/27 07:41:20;;;;;;;11.83;5.90;;;;;;;;;;5038584;28;20207;-69
2022/01/27 07:43:54;;;;;;;9.00;4.80;;;;;;;;;;5026417;28;20241;-71
2022/01/27 07:46:26;;;;;;;9.70;5.07;;;;;;;;;;5040065;28;20297;-69
2022/01/27 07:49:01;;;;;;;7.83;4.70;;;;;;;;;;5033649;28;20210;-70
2022/01/27 07:51:32;;;;;;;6.37;4.20;;;;;;;;;;5040214;28;20286;-70
2022/01/27 07:54:03;;;;;;;5.73;4.53;;;;;;;;;;5030605;28;20195;-71
2022/01/27 07:56:33;;;;;;;6.63;4.23;;;;;;;;;;5035736;28;20300;-70
2022/01/27 07:59:01;;;;;;;8.30;4.57;;;;;;;;;;5010659;28;20203;-69
2022/01/27 08:01:34;;;;;;;8.23;5.63;;;;;;;;;;5026910;28;20207;-69
2022/01/27 08:04:06;;;;;;;10.57;5.37;;;;;;;;;;5028485;28;20554;-69
2022/01/27 08:06:37;;;;;;;8.93;4.90;;;;;;;;;;5026346;28;20815;-68
2022/01/27 08:09:04;;;;;;;5.53;4.43;;;;;;;;;;5022452;28;20239;-70
2022/01/27 08:11:36;;;;;;;8.33;4.87;;;;;;;;;;5028645;28;20210;-67
2022/01/27 08:14:07;;;;;;;6.60;4.30;;;;;;;;;;5010166;28;20371;-67
2022/01/27 08:16:36;;;;;;;5.00;4.10;;;;;;;;;;5029498;28;20258;-71
2022/01/27 08:19:07;;;;;;;5.93;3.93;;;;;;;;;;5022731;28;20577;-71
2022/01/27 08:21:39;;;;;;;6.33;4.00;;;;;;;;;;5022375;28;20261;-70
2022/01/27 08:24:09;;;;;;;4.47;3.50;;;;;;;;;;5020131;28;20216;-68
2022/01/27 08:26:42;;;;;;;4.17;3.60;;;;;;;;;;5024178;28;20211;-68
2022/01/27 08:29:20;;;;;;;4.03;3.63;;;;;;;;;;5029444;28;20218;-68
2022/01/27 08:32:18;;;;;;;4.53;3.50;;;;;;;;;;5029885;28;20221;-68
2022/01/27 08:34:57;;;;;;;4.30;3.53;;;;;;;;;;5029533;28;20191;-68
2022/01/27 08:37:31;;;;;;;4.17;3.40;;;;;;;;;;4979940;28;20258;-67
2022/01/27 08:40:00;;;;;;;5.97;3.60;;;;;;;;;;5026194;28;20199;-68
2022/01/27 08:42:58;;;;;;;3.50;3.13;;;;;;;;;;5023065;28;20927;-70
2022/01/27 08:45:30;;;;;;;4.43;3.83;;;;;;;;;;5025164;28;20199;-70
2022/01/27 08:47:59;;;;;;;5.47;3.20;;;;;;;;;;5020574;28;20227;-70
2022/01/27 08:50:29;;;;;;;4.17;3.53;;;;;;;;;;5028716;28;20187;-70
2022/01/27 08:52:58;;;;;;;5.43;3.17;;;;;;;;;;5019549;28;20199;-68
2022/01/27 08:55:29;;;;;;;3.73;3.37;;;;;;;;;;5023659;28;20211;-70
2022/01/27 08:58:04;;;;;;;3.43;3.13;;;;;;;;;;5015901;28;20223;-70
2022/01/27 09:00:32;;;;;;;3.47;3.17;;;;;;;;;;5019111;28;20207;-70
2022/01/27 09:03:04;;;;;;;3.33;3.03;;;;;;;;;;5019506;28;20199;-70
2022/01/27 09:05:35;;;;;;;3.87;3.33;;;;;;;;;;5020208;28;20219;-67
2022/01/27 09:08:05;;;;;;;3.70;3.07;;;;;;;;;;5008601;28;20235;-68
2022/01/27 09:10:45;;;;;;;3.17;2.87;;;;;;;;;;5023599;28;20225;-68
2022/01/27 09:13:18;;;;;;;2.87;2.57;;;;;;;;;;5035761;28;20218;-68
2022/01/27 09:16:00;;;;;;;3.07;2.77;;;;;;;;;;5025789;28;20195;-68
2022/01/27 09:18:33;;;;;;;3.60;3.30;;;;;;;;;;5024870;28;20202;-67
2022/01/27 09:21:12;;;;;;;4.10;3.00;;;;;;;;;;5021549;28;20270;-70
2022/01/27 09:23:44;;;;;;;3.47;3.17;;;;;;;;;;5028372;28;20203;-69
2022/01/27 09:26:38;;;;;;;3.03;2.70;;;;;;;;;;5001508;28;20688;-73
2022/01/27 09:29:05;;;;;;;2.80;2.60;;;;;;;;;;5021377;28;20234;-71
2022/01/27 09:31:42;;;;;;;3.13;2.63;;;;;;;;;;5023482;28;20230;-70
2022/01/27 09:34:16;;;;;;;2.83;2.60;;;;;;;;;;5022116;28;20191;-68
2022/01/27 09:36:49;;;;;;;3.00;2.70;;;;;;;;;;5007432;28;20598;-69
2022/01/27 09:39:17;;;;;;;3.50;2.80;;;;;;;;;;5010716;28;20739;-68
2022/01/27 09:42:02;;;;;;;3.87;2.60;;;;;;;;;;5025838;28;20215;-67
2022/01/27 09:44:44;;;;;;;3.40;2.87;;;;;;;;;;5024991;28;20199;-68
2022/01/27 09:47:16;;;;;;;5.27;4.33;;;;;;;;;;5024234;28;20219;-72
2022/01/27 09:50:03;;;;;;;5.67;4.10;;;;;;;;;;5011597;28;20184;-71
2022/01/27 09:52:37;;;;;;;5.77;3.97;;;;;;;;;;5023860;28;20210;-72
2022/01/27 09:55:09;;;;;;;7.13;3.97;;;;;;;;;;5021410;28;20221;-67
2022/01/27 09:57:37;;;;;;;3.93;3.53;;;;;;;;;;5027476;28;20219;-68
2022/01/27 10:00:08;;;;;;;4.93;3.80;;;;;;;;;;5026685;28;20640;-67
2022/01/27 10:02:39;;;;;;;4.97;4.10;;;;;;;;;;5026534;28;20207;-68
2022/01/27 10:05:23;;;;;;;3.73;3.10;;;;;;;;;;5017052;28;20292;-68
2022/01/27 10:08:02;;;;;;;3.40;3.07;;;;;;;;;;5024390;28;20214;-68
2022/01/27 10:10:42;;;;;;;3.63;3.27;;;;;;;;;;5010652;28;20196;-67
2022/01/27 10:13:27;;;;;;;4.03;3.30;;;;;;;;;;5025600;28;20199;-67
2022/01/27 10:15:56;;;;;;;3.47;3.17;;;;;;;;;;5035920;28;20195;-66
2022/01/27 10:18:34;;;;;;;4.17;3.77;;;;;;;;;;5026658;28;20211;-67
2022/01/27 10:21:08;;;;;;;4.53;3.63;;;;;;;;;;5004526;28;20207;-68
2022/01/27 10:23:44;;;;;;;4.23;3.50;;;;;;;;;;5026341;28;20616;-69
2022/01/27 10:26:20;;;;;;;3.63;3.03;;;;;;;;;;5029375;28;20619;-68
2022/01/27 10:29:12;;;;;;;5.67;3.40;;;;;;;;;;5024007;28;20601;-68
2022/01/27 10:31:41;;;;;;;4.03;3.63;;;;;;;;;;5008801;28;20219;-66
2022/01/27 10:34:15;;;;;;;3.77;3.00;;;;;;;;;;5023108;28;20281;-66
2022/01/27 10:36:57;;;;;;;4.17;3.47;;;;;;;;;;5009397;28;20261;-68
2022/01/27 10:39:31;;;;;;;3.50;3.20;;;;;;;;;;5011097;28;20276;-68
2022/01/27 10:42:06;;;;;;;3.87;2.93;;;;;;;;;;5019340;28;20195;-68
2022/01/27 10:44:43;;;;;;;3.23;2.93;;;;;;;;;;5023444;28;20218;-69
2022/01/27 10:47:42;;;;;;;3.43;3.13;;;;;;;;;;5026111;28;20222;-68
2022/01/27 10:50:17;;;;;;;3.30;3.00;;;;;;;;;;5025542;28;20214;-69
2022/01/27 10:52:57;;;;;;;3.17;2.87;;;;;;;;;;5015268;28;20206;-67
2022/01/27 10:55:27;;;;;;;4.47;3.00;;;;;;;;;;5023132;28;20229;-68
2022/01/27 10:57:56;;;;;;;3.07;2.77;;;;;;;;;;5026745;28;20707;-69
2022/01/27 11:00:26;;;;;;;3.93;2.70;;;;;;;;;;5023862;28;20210;-67
2022/01/27 11:03:04;;;;;;;4.00;2.80;;;;;;;;;;5015027;28;20195;-68
2022/01/27 11:05:56;;;;;;;3.60;3.30;;;;;;;;;;5004108;28;20222;-67
2022/01/27 11:08:30;;;;;;;3.50;3.20;;;;;;;;;;5021180;28;20319;-68
2022/01/27 11:11:03;;;;;;;3.33;3.03;;;;;;;;;;5022094;28;20194;-68
2022/01/27 11:13:36;;;;;;;3.57;2.87;;;;;;;;;;5022917;28;20613;-68
2022/01/27 11:16:12;;;;;;;3.30;2.83;;;;;;;;;;5009971;28;20772;-66
2022/01/27 11:19:02;;;;;;;3.23;2.93;;;;;;;;;;5017692;28;20728;-66
2022/01/27 11:21:39;;;;;;;4.03;3.20;;;;;;;;;;5024509;28;20501;-66
2022/01/27 11:24:17;;;;;;;3.17;2.87;;;;;;;;;;5025219;28;20624;-66
2022/01/27 11:26:46;;;;;;;3.17;2.87;;;;;;;;;;5020078;28;20211;-68
2022/01/27 11:29:22;;;;;;;3.27;2.97;;;;;;;;;;5009543;28;20234;-67
2022/01/27 11:32:16;;;;;;;4.13;3.73;;;;;;;;;;5021208;28;20300;-66
2022/01/27 11:34:52;;;;;;;3.13;2.93;;;;;;;;;;5022947;28;20558;-66
2022/01/27 11:37:41;;;;;;;4.10;3.30;;;;;;;;;;5018738;28;20235;-67
2022/01/27 11:40:17;;;;;;;4.40;3.70;;;;;;;;;;5025385;28;20564;-67
2022/01/27 11:43:03;;;;;;;7.27;3.30;;;;;;;;;;5020786;28;20194;-68
2022/01/27 11:45:37;;;;;;;6.40;3.57;;;;;;;;;;5018949;28;20213;-67
2022/01/27 11:48:26;;;;;;;8.37;3.17;;;;;;;;;;5021593;28;20235;-67
2022/01/27 11:51:12;;;;;;;3.93;2.90;;;;;;;;;;5020253;28;20203;-65
2022/01/27 11:53:50;;;;;;;3.57;2.80;;;;;;;;;;5008244;28;20572;-65
2022/01/27 11:56:36;;;;;;;3.67;2.60;;;;;;;;;;5021440;28;20254;-65
2022/01/27 11:59:10;;;;;;;3.27;2.30;;;;;;;;;;5026580;28;20306;-66
2022/01/27 12:01:58;;;;;;;2.70;2.50;;;;;;;;;;5025445;28;20202;-68
2022/01/27 12:04:29;;;;;;;3.07;2.40;;;;;;;;;;5008351;28;20210;-67
2022/01/27 12:07:15;;;;;;;2.97;2.30;;;;;;;;;;5012299;28;20725;-69
2022/01/27 12:09:53;;;;;;;3.33;2.40;;;;;;;;;;5014854;28;20222;-66
2022/01/27 12:12:34;;;;;;;3.17;2.83;;;;;;;;;;5023042;28;20912;-67
2022/01/27 12:15:06;;;;;;;2.73;2.27;;;;;;;;;;5017400;28;20265;-69
2022/01/27 12:17:40;;;;;;;2.10;1.90;;;;;;;;;;5026048;28;20195;-69
2022/01/27 12:20:13;;;;;;;2.10;1.90;;;;;;;;;;5007882;28;20223;-68
2022/01/27 12:22:52;;;;;;;2.73;2.27;;;;;;;;;;5023021;28;20207;-67
2022/01/27 12:25:22;;;;;;;2.67;2.20;;;;;;;;;;5031448;28;20236;-66
2022/01/27 12:27:54;;;;;;;1.90;1.80;;;;;;;;;;4995648;28;20223;-67
2022/01/27 12:30:25;;;;;;;2.00;1.80;;;;;;;;;;5010617;28;20781;-67
2022/01/27 12:33:06;;;;;;;2.70;1.90;;;;;;;;;;5022766;28;20312;-66
2022/01/27 12:35:55;;;;;;;2.10;1.90;;;;;;;;;;5012649;28;20300;-67
2022/01/27 12:38:24;;;;;;;2.00;1.90;;;;;;;;;;5015186;28;20243;-68
2022/01/27 12:40:59;;;;;;;3.13;1.90;;;;;;;;;;4988915;28;20262;-69
2022/01/27 12:43:27;;;;;;;2.27;2.07;;;;;;;;;;5006868;28;20216;-68
2022/01/27 12:46:00;;;;;;;1.90;1.80;;;;;;;;;;4991031;28;20200;-69
2022/01/27 12:48:30;;;;;;;1.90;1.80;;;;;;;;;;5004477;28;20691;-67
2022/01/27 12:51:03;;;;;;;2.00;1.90;;;;;;;;;;5002133;28;20649;-66
2022/01/27 12:53:34;;;;;;;2.03;1.70;;;;;;;;;;5008264;28;20215;-68
2022/01/27 12:56:10;;;;;;;2.00;1.80;;;;;;;;;;5004283;28;20215;-68
2022/01/27 12:58:45;;;;;;;1.70;1.60;;;;;;;;;;4987762;28;20211;-67
2022/01/27 13:01:17;;;;;;;2.70;2.00;;;;;;;;;;5014509;28;20214;-66
2022/01/27 13:04:03;;;;;;;2.27;1.90;;;;;;;;;;5008269;28;20234;-67
2022/01/27 13:07:00;;;;;;;1.83;1.73;;;;;;;;;;5003779;28;20207;-69
2022/01/27 13:09:32;;;;;;;2.43;1.80;;;;;;;;;;5009381;28;20612;-67
2022/01/27 13:12:16;;;;;;;1.90;1.80;;;;;;;;;;5001925;28;20199;-69
2022/01/27 13:14:51;;;;;;;2.07;1.70;;;;;;;;;;5001864;28;20227;-68
2022/01/27 13:17:36;;;;;;;2.17;1.93;;;;;;;;;;4990306;28;20218;-67
2022/01/27 13:20:34;;;;;;;2.57;1.90;;;;;;;;;;4994149;28;20223;-68
2022/01/27 13:23:13;;;;;;;2.40;2.20;;;;;;;;;;5006072;28;20673;-67
2022/01/27 13:25:59;;;;;;;2.73;2.20;;;;;;;;;;5009381;28;20196;-68
2022/01/27 13:28:35;;;;;;;2.80;2.50;;;;;;;;;;5008601;28;20681;-67
2022/01/27 13:31:12;;;;;;;2.60;2.40;;;;;;;;;;5003697;28;20218;-68
2022/01/27 13:33:49;;;;;;;2.37;2.17;;;;;;;;;;5008142;28;20202;-67
2022/01/27 13:36:21;;;;;;;2.27;2.07;;;;;;;;;;5007682;28;20211;-70
2022/01/27 13:39:11;;;;;;;2.57;2.37;;;;;;;;;;5013545;28;20507;-70
2022/01/27 13:41:45;;;;;;;2.77;2.40;;;;;;;;;;5012652;28;20285;-68
2022/01/27 13:44:16;;;;;;;2.37;2.17;;;;;;;;;;5023999;28;20220;-69
2022/01/27 13:46:48;;;;;;;5.30;2.50;;;;;;;;;;5015271;28;20206;-67
2022/01/27 13:49:22;;;;;;;5.93;2.77;;;;;;;;;;5018207;28;20678;-68
2022/01/27 13:51:56;;;;;;;2.60;2.40;;;;;;;;;;5020421;28;20206;-69
2022/01/27 13:54:35;;;;;;;3.00;2.70;;;;;;;;;;5032085;28;20199;-69
2022/01/27 13:57:04;;;;;;;3.53;2.40;;;;;;;;;;5024316;28;20211;-71
2022/01/27 13:59:43;;;;;;;2.50;2.10;;;;;;;;;;5019405;28;20213;-71
2022/01/27 14:02:29;;;;;;;2.43;2.23;;;;;;;;;;5028457;28;20199;-68
2022/01/27 14:05:14;;;;;;;2.53;2.33;;;;;;;;;;5033329;28;20206;-68
2022/01/27 14:07:58;;;;;;;2.60;2.40;;;;;;;;;;5026014;28;20296;-68
2022/01/27 14:10:38;;;;;;;3.10;2.33;;;;;;;;;;5035946;28;20288;-68
2022/01/27 14:13:10;;;;;;;2.70;2.50;;;;;;;;;;5025743;28;20611;-68
2022/01/27 14:15:56;;;;;;;3.47;2.53;;;;;;;;;;5009489;28;20222;-69
2022/01/27 14:18:42;;;;;;;2.77;2.30;;;;;;;;;;5015507;28;20632;-70
2022/01/27 14:21:11;;;;;;;4.37;2.37;;;;;;;;;;5029476;28;20301;-67
2022/01/27 14:24:07;;;;;;;2.50;2.30;;;;;;;;;;5027337;28;20227;-68
2022/01/27 14:29:13;;;;;;;4.07;2.50;;;;;;;;;;5029766;28;20206;-70
2022/01/27 14:31:50;;;;;;;2.63;2.43;;;;;;;;;;5024728;28;20281;-70
2022/01/27 14:34:33;;;;;;;2.37;2.17;;;;;;;;;;5012750;28;20194;-71
2022/01/27 14:37:05;;;;;;;10.23;2.47;;;;;;;;;;5023968;28;20262;-68
2022/01/27 14:39:33;;;;;;;2.50;2.17;;;;;;;;;;5025921;28;20601;-69
2022/01/27 14:42:05;;;;;;;2.87;2.40;;;;;;;;;;5023489;28;20593;-68
2022/01/27 14:44:36;;;;;;;2.50;2.30;;;;;;;;;;5020947;28;20219;-68
2022/01/27 14:47:06;;;;;;;2.83;2.30;;;;;;;;;;5022259;28;20221;-68
2022/01/27 14:49:42;;;;;;;3.57;2.37;;;;;;;;;;5024345;28;20199;-68
2022/01/27 14:52:14;;;;;;;2.93;2.27;;;;;;;;;;5023952;28;20206;-69
2022/01/27 14:54:48;;;;;;;4.23;2.20;;;;;;;;;;5019630;28;20190;-69
2022/01/27 14:57:36;;;;;;;2.47;1.83;;;;;;;;;;5006566;28;20199;-69
2022/01/27 15:00:07;;;;;;;2.37;1.70;;;;;;;;;;5025373;28;20217;-69
2022/01/27 15:02:42;;;;;;;3.57;2.13;;;;;;;;;;5009784;28;20246;-70
2022/01/27 15:05:11;;;;;;;3.10;2.33;;;;;;;;;;5023067;28;20546;-70
2022/01/27 15:07:39;;;;;;;2.63;1.97;;;;;;;;;;5017574;28;20219;-69
2022/01/27 15:10:11;;;;;;;3.20;2.40;;;;;;;;;;5024563;28;20195;-66
2022/01/27 15:12:40;;;;;;;3.13;2.17;;;;;;;;;;5021447;28;20687;-65
2022/01/27 15:20:47;;;;;;;2.50;2.07;;;;;;;;;;5022495;28;20237;-68
2022/01/27 15:23:20;;;;;;;4.03;2.23;;;;;;;;;;5020093;28;20215;-67
2022/01/27 15:25:50;;;;;;;2.60;2.40;;;;;;;;;;5018764;28;20208;-68
2022/01/27 15:28:22;;;;;;;2.37;2.00;;;;;;;;;;5008201;28;20683;-67
2022/01/27 15:30:54;;;;;;;3.00;2.20;;;;;;;;;;5003040;28;20218;-67
2022/01/27 15:33:25;;;;;;;2.17;1.90;;;;;;;;;;5018113;28;20215;-68
2022/01/27 15:36:04;;;;;;;2.80;2.50;;;;;;;;;;5040212;28;20197;-67
2022/01/27 15:38:37;;;;;;;3.20;2.10;;;;;;;;;;5021659;28;20238;-66
2022/01/27 15:41:11;;;;;;;3.23;2.17;;;;;;;;;;5033854;28;20202;-67
2022/01/27 15:43:40;;;;;;;2.67;2.03;;;;;;;;;;5019502;28;20219;-67
2022/01/27 15:46:12;;;;;;;2.03;1.80;;;;;;;;;;5039908;28;20205;-67
2022/01/27 15:48:45;;;;;;;2.43;2.13;;;;;;;;;;5012123;28;20210;-68
2022/01/27 15:51:17;;;;;;;2.93;1.90;;;;;;;;;;5037507;28;20262;-69
2022/01/27 15:53:47;;;;;;;3.30;2.00;;;;;;;;;;5028023;28;20401;-68
2022/01/27 15:56:17;;;;;;;3.93;2.20;;;;;;;;;;5017005;28;20206;-67
2022/01/27 15:58:50;;;;;;;10.50;3.07;;;;;;;;;;5020491;28;20207;-67
2022/01/27 16:01:21;;;;;;;3.30;2.17;;;;;;;;;;5031933;28;20203;-66
2022/01/27 16:03:57;;;;;;;4.03;2.03;;;;;;;;;;5000589;28;20218;-67
2022/01/27 16:06:26;;;;;;;4.47;2.30;;;;;;;;;;5029958;28;20995;-66
2022/01/27 16:09:09;;;;;;;3.87;2.37;;;;;;;;;;5023035;28;20218;-67
2022/01/27 16:11:40;;;;;;;4.03;2.03;;;;;;;;;;5037674;28;20507;-67
2022/01/27 16:14:12;;;;;;;3.10;2.20;;;;;;;;;;5024821;28;20532;-67
2022/01/27 16:16:47;;;;;;;3.50;2.43;;;;;;;;;;5014574;28;20194;-67
2022/01/27 16:19:30;;;;;;;5.63;2.60;;;;;;;;;;5023699;28;20223;-67